Time;durP1;ratioP1;P1;durP2;ratioP2;P2;SDS_P1;SDS_P2;PMS_P1;PMS_P2;Temp;Humidity;BMP_temperature;BMP_pressure;BME280_temperature;BME280_humidity;BME280_pressure;Samples;Min_cycle;Max_cycle;Signal;HPM_P1;HPM_P2
2021/12/31 00:00:29;;;;;;;18.17;4.90;;;;;;;;;;5103560;28;20395;-81
2021/12/31 00:02:55;;;;;;;20.95;6.07;;;;;;;;;;5083794;28;20425;-81
2021/12/31 00:05:22;;;;;;;15.25;4.90;;;;;;;;;;5088288;28;20051;-74
2021/12/31 00:07:48;;;;;;;17.45;6.10;;;;;;;;;;5106691;27;20054;-74
2021/12/31 00:10:15;;;;;;;13.82;5.05;;;;;;;;;;5107010;27;20125;-74
2021/12/31 00:12:42;;;;;;;13.68;5.38;;;;;;;;;;5087138;28;20055;-74
2021/12/31 00:15:09;;;;;;;15.50;5.40;;;;;;;;;;5109371;27;20479;-74
2021/12/31 00:17:36;;;;;;;11.65;5.03;;;;;;;;;;5102707;28;20064;-74
2021/12/31 00:20:07;;;;;;;22.05;5.13;;;;;;;;;;5085184;28;20482;-74
2021/12/31 00:25:19;;;;;;;19.50;5.40;;;;;;;;;;5111059;27;20043;-74
2021/12/31 00:27:45;;;;;;;27.92;6.82;;;;;;;;;;5107834;27;20436;-74
2021/12/31 00:30:13;;;;;;;22.13;6.70;;;;;;;;;;5109794;27;20479;-74
2021/12/31 00:32:39;;;;;;;17.05;4.93;;;;;;;;;;5093403;27;20036;-81
2021/12/31 00:35:06;;;;;;;14.40;6.22;;;;;;;;;;5108940;27;20037;-81
2021/12/31 00:37:33;;;;;;;18.77;5.25;;;;;;;;;;5112747;27;20046;-81
2021/12/31 00:39:59;;;;;;;15.50;5.35;;;;;;;;;;5112861;27;20471;-80
2021/12/31 00:42:25;;;;;;;17.27;5.35;;;;;;;;;;5112115;27;20392;-81
2021/12/31 00:44:52;;;;;;;15.55;4.80;;;;;;;;;;5094705;27;20046;-81
2021/12/31 00:47:19;;;;;;;17.83;4.78;;;;;;;;;;5111934;27;20050;-81
2021/12/31 00:49:46;;;;;;;19.85;5.38;;;;;;;;;;5105183;27;20042;-81
2021/12/31 00:52:13;;;;;;;14.70;6.22;;;;;;;;;;5070002;27;20039;-81
2021/12/31 00:54:39;;;;;;;17.90;5.22;;;;;;;;;;5093357;27;20528;-81
2021/12/31 00:57:05;;;;;;;21.80;5.88;;;;;;;;;;5111274;27;20035;-81
2021/12/31 00:59:32;;;;;;;19.67;6.53;;;;;;;;;;5104626;27;20074;-81
2021/12/31 01:01:58;;;;;;;16.60;4.90;;;;;;;;;;5092043;27;20035;-81
2021/12/31 01:04:25;;;;;;;14.95;7.13;;;;;;;;;;5094634;27;20399;-81
2021/12/31 01:06:51;;;;;;;16.05;5.50;;;;;;;;;;5105836;27;20047;-81
2021/12/31 01:09:17;;;;;;;14.48;5.53;;;;;;;;;;5106630;27;20532;-80
2021/12/31 01:11:47;;;;;;;18.75;5.03;;;;;;;;;;5114236;27;20031;-81
2021/12/31 01:17:10;;;;;;;12.35;4.85;;;;;;;;;;5085668;27;20046;-81
2021/12/31 01:19:45;;;;;;;14.52;5.00;;;;;;;;;;5112301;27;20119;-80
2021/12/31 01:22:12;;;;;;;20.73;5.97;;;;;;;;;;5105078;27;20039;-81
2021/12/31 01:24:38;;;;;;;14.73;5.22;;;;;;;;;;5110622;27;20095;-81
2021/12/31 01:27:05;;;;;;;13.35;5.85;;;;;;;;;;5091367;27;20095;-81
2021/12/31 01:29:31;;;;;;;17.42;6.05;;;;;;;;;;5105366;27;20188;-81
2021/12/31 01:31:57;;;;;;;15.10;5.15;;;;;;;;;;5106624;27;20170;-81
2021/12/31 01:34:24;;;;;;;14.45;6.13;;;;;;;;;;5094016;27;20051;-81
2021/12/31 01:36:51;;;;;;;16.05;5.90;;;;;;;;;;5074293;27;20184;-80
2021/12/31 01:39:17;;;;;;;9.30;5.38;;;;;;;;;;5092154;28;20043;-80
2021/12/31 01:41:43;;;;;;;13.35;5.95;;;;;;;;;;5110984;27;20468;-81
2021/12/31 01:44:11;;;;;;;16.55;6.32;;;;;;;;;;5111505;27;20043;-81
2021/12/31 01:46:40;;;;;;;22.33;4.70;;;;;;;;;;5093569;27;20098;-81
2021/12/31 01:49:20;;;;;;;14.05;5.47;;;;;;;;;;5109590;27;20047;-81
2021/12/31 01:51:46;;;;;;;11.60;5.35;;;;;;;;;;5090607;27;20482;-80
2021/12/31 01:54:13;;;;;;;10.68;4.57;;;;;;;;;;5105228;27;20082;-81
2021/12/31 01:56:40;;;;;;;8.00;4.38;;;;;;;;;;5110675;27;20038;-81
2021/12/31 01:59:07;;;;;;;12.70;4.97;;;;;;;;;;5107714;27;20103;-81
2021/12/31 02:01:35;;;;;;;12.80;4.45;;;;;;;;;;5093311;27;20050;-81
2021/12/31 02:04:01;;;;;;;13.98;5.20;;;;;;;;;;5071180;27;20444;-81
2021/12/31 02:06:28;;;;;;;11.25;4.32;;;;;;;;;;5090546;27;20049;-80
2021/12/31 02:08:54;;;;;;;16.23;4.85;;;;;;;;;;5102023;27;20066;-81
2021/12/31 02:11:20;;;;;;;13.10;5.07;;;;;;;;;;5105603;27;20503;-81
2021/12/31 02:13:47;;;;;;;23.50;7.22;;;;;;;;;;5109928;27;20031;-80
2021/12/31 02:16:13;;;;;;;11.90;4.57;;;;;;;;;;5104853;27;20534;-81
2021/12/31 02:18:43;;;;;;;11.85;4.28;;;;;;;;;;5086226;28;20124;-80
2021/12/31 02:21:11;;;;;;;12.68;4.57;;;;;;;;;;5104344;27;20047;-81
2021/12/31 02:23:44;;;;;;;16.08;5.35;;;;;;;;;;5109154;27;20371;-80
2021/12/31 02:26:10;;;;;;;;;;;;;;;;;;5102539;27;20047;-81
2021/12/31 02:28:36;;;;;;;7.43;4.25;;;;;;;;;;5106298;27;19919;-81
2021/12/31 02:31:03;;;;;;;16.55;5.70;;;;;;;;;;5107285;27;20114;-81
2021/12/31 02:33:30;;;;;;;23.02;5.45;;;;;;;;;;5106210;27;20349;-81
2021/12/31 02:35:57;;;;;;;11.55;4.18;;;;;;;;;;5108399;27;20057;-81
2021/12/31 02:38:23;;;;;;;19.13;5.45;;;;;;;;;;5090872;27;20044;-81
2021/12/31 02:40:49;;;;;;;12.68;4.40;;;;;;;;;;5112251;27;20609;-81
2021/12/31 02:43:15;;;;;;;7.18;3.83;;;;;;;;;;5091874;27;20328;-81
2021/12/31 02:45:42;;;;;;;18.48;6.35;;;;;;;;;;5107323;27;20119;-81
2021/12/31 02:48:10;;;;;;;18.80;5.47;;;;;;;;;;5108878;27;20047;-81
2021/12/31 02:50:39;;;;;;;13.52;4.90;;;;;;;;;;5104177;27;20035;-81
2021/12/31 02:53:15;;;;;;;19.08;5.30;;;;;;;;;;5114218;27;20114;-81
2021/12/31 02:55:43;;;;;;;15.18;5.95;;;;;;;;;;5108832;27;20037;-81
2021/12/31 02:58:09;;;;;;;13.95;5.22;;;;;;;;;;5090822;27;20046;-81
2021/12/31 03:00:37;;;;;;;14.40;4.65;;;;;;;;;;5094061;27;20043;-81
2021/12/31 03:03:05;;;;;;;13.98;4.65;;;;;;;;;;5107751;27;20042;-81
2021/12/31 03:05:32;;;;;;;9.57;3.72;;;;;;;;;;5084752;27;20096;-81
2021/12/31 03:07:58;;;;;;;16.13;5.28;;;;;;;;;;5083815;27;20089;-81
2021/12/31 03:10:26;;;;;;;13.38;5.15;;;;;;;;;;5109938;27;20042;-81
2021/12/31 03:12:52;;;;;;;19.23;6.47;;;;;;;;;;5102972;27;20424;-81
2021/12/31 03:15:19;;;;;;;15.20;5.20;;;;;;;;;;5091185;28;20088;-81
2021/12/31 03:17:45;;;;;;;14.13;4.32;;;;;;;;;;5085535;28;20475;-81
2021/12/31 03:20:16;;;;;;;14.02;4.63;;;;;;;;;;5086958;28;20135;-81
2021/12/31 03:22:43;;;;;;;10.98;4.32;;;;;;;;;;5107042;27;20131;-80
2021/12/31 03:25:10;;;;;;;13.82;4.88;;;;;;;;;;5090255;28;20046;-80
2021/12/31 03:27:36;;;;;;;11.13;5.00;;;;;;;;;;5085560;28;20215;-80
2021/12/31 03:30:03;;;;;;;11.32;4.10;;;;;;;;;;5099428;27;20050;-80
2021/12/31 03:32:29;;;;;;;14.13;4.57;;;;;;;;;;5103278;27;20035;-81
2021/12/31 03:34:55;;;;;;;10.90;4.25;;;;;;;;;;5088351;28;20028;-80
2021/12/31 03:37:22;;;;;;;15.18;4.22;;;;;;;;;;5099149;28;20075;-80
2021/12/31 03:39:49;;;;;;;10.63;4.65;;;;;;;;;;5084159;28;20788;-80
2021/12/31 03:42:16;;;;;;;9.60;4.22;;;;;;;;;;5079353;28;20040;-80
2021/12/31 03:44:43;;;;;;;13.63;4.72;;;;;;;;;;5078845;28;20032;-81
2021/12/31 03:47:09;;;;;;;11.43;4.38;;;;;;;;;;5084142;28;20036;-81
2021/12/31 03:49:35;;;;;;;12.57;5.00;;;;;;;;;;5083692;28;20043;-80
2021/12/31 03:52:02;;;;;;;8.85;3.78;;;;;;;;;;5069092;28;20452;-80
2021/12/31 03:54:28;;;;;;;12.73;4.30;;;;;;;;;;5104900;28;20122;-80
2021/12/31 03:56:54;;;;;;;20.17;6.03;;;;;;;;;;5097922;28;20214;-80
2021/12/31 03:59:20;;;;;;;11.90;4.20;;;;;;;;;;5106630;28;20044;-80
2021/12/31 04:01:46;;;;;;;12.05;3.95;;;;;;;;;;5090206;28;20069;-74
2021/12/31 04:04:13;;;;;;;12.02;3.65;;;;;;;;;;5085465;28;20088;-74
2021/12/31 04:06:39;;;;;;;14.77;5.13;;;;;;;;;;5084749;28;20452;-73
2021/12/31 04:09:05;;;;;;;16.48;4.63;;;;;;;;;;5101815;27;20063;-74
2021/12/31 04:11:31;;;;;;;13.73;4.55;;;;;;;;;;5107967;27;20114;-73
2021/12/31 04:13:57;;;;;;;14.95;4.65;;;;;;;;;;5105188;27;20135;-74
2021/12/31 04:16:26;;;;;;;12.88;4.68;;;;;;;;;;5095141;27;20359;-73
2021/12/31 04:18:52;;;;;;;13.07;4.45;;;;;;;;;;5110168;27;20519;-74
2021/12/31 04:21:21;;;;;;;10.18;4.43;;;;;;;;;;5108665;27;20047;-74
2021/12/31 04:23:48;;;;;;;14.27;3.92;;;;;;;;;;5085325;27;20043;-73
2021/12/31 04:26:15;;;;;;;13.05;4.90;;;;;;;;;;5075191;27;20169;-74
2021/12/31 04:28:41;;;;;;;12.98;4.50;;;;;;;;;;5090826;27;20044;-74
2021/12/31 04:31:09;;;;;;;10.65;3.90;;;;;;;;;;5105769;27;20451;-73
2021/12/31 04:33:35;;;;;;;11.93;3.95;;;;;;;;;;5092912;27;20118;-73
2021/12/31 04:36:01;;;;;;;16.77;5.28;;;;;;;;;;5089917;27;20399;-73
2021/12/31 04:38:27;;;;;;;12.20;4.50;;;;;;;;;;5094142;27;20502;-73
2021/12/31 04:40:53;;;;;;;11.40;4.00;;;;;;;;;;5103819;27;20039;-73
2021/12/31 04:43:19;;;;;;;10.48;4.07;;;;;;;;;;5110292;27;20232;-73
2021/12/31 04:45:46;;;;;;;13.75;3.75;;;;;;;;;;5105420;27;20039;-73
2021/12/31 04:48:13;;;;;;;10.70;3.88;;;;;;;;;;5105559;27;20402;-73
2021/12/31 04:50:39;;;;;;;11.52;4.43;;;;;;;;;;5109828;27;20259;-81
2021/12/31 04:53:07;;;;;;;10.27;3.75;;;;;;;;;;5104668;27;20501;-81
2021/12/31 04:55:33;;;;;;;7.75;3.38;;;;;;;;;;5105118;27;20127;-81
2021/12/31 04:57:59;;;;;;;6.30;3.28;;;;;;;;;;5079439;27;20042;-81
2021/12/31 05:00:25;;;;;;;8.73;3.47;;;;;;;;;;5109796;27;20067;-81
2021/12/31 05:02:52;;;;;;;7.35;3.92;;;;;;;;;;5106626;27;20096;-81
2021/12/31 05:05:18;;;;;;;8.90;3.35;;;;;;;;;;5108831;27;20038;-81
2021/12/31 05:07:44;;;;;;;10.57;3.38;;;;;;;;;;5085979;27;20443;-81
2021/12/31 05:10:10;;;;;;;12.48;3.80;;;;;;;;;;5097803;27;20056;-80
2021/12/31 05:12:38;;;;;;;6.78;3.08;;;;;;;;;;5104768;27;20027;-81
2021/12/31 05:15:07;;;;;;;8.45;3.03;;;;;;;;;;5084693;27;20105;-81
2021/12/31 05:17:33;;;;;;;8.07;3.47;;;;;;;;;;5106067;27;20449;-81
2021/12/31 05:20:00;;;;;;;14.52;4.03;;;;;;;;;;5109218;27;20043;-80
2021/12/31 05:22:26;;;;;;;6.35;3.00;;;;;;;;;;5104517;27;20047;-80
2021/12/31 05:24:52;;;;;;;10.27;3.53;;;;;;;;;;5087432;27;20057;-81
2021/12/31 05:27:18;;;;;;;5.95;3.13;;;;;;;;;;5114281;27;20455;-81
2021/12/31 05:29:44;;;;;;;7.82;3.17;;;;;;;;;;5103852;27;20051;-81
2021/12/31 05:32:10;;;;;;;7.55;3.10;;;;;;;;;;5112747;27;20444;-81
2021/12/31 05:34:37;;;;;;;7.63;3.20;;;;;;;;;;5103000;27;20100;-81
2021/12/31 05:37:03;;;;;;;9.90;3.78;;;;;;;;;;5085702;27;20115;-81
2021/12/31 05:39:29;;;;;;;7.82;3.00;;;;;;;;;;5093536;27;20055;-81
2021/12/31 05:41:55;;;;;;;8.90;3.30;;;;;;;;;;5108740;27;20035;-81
2021/12/31 05:44:22;;;;;;;8.93;3.20;;;;;;;;;;5087353;27;20087;-80
2021/12/31 05:46:50;;;;;;;8.35;4.40;;;;;;;;;;5088314;27;20034;-80
2021/12/31 05:49:16;;;;;;;15.38;3.13;;;;;;;;;;5106162;27;20114;-81
2021/12/31 05:51:42;;;;;;;10.32;3.95;;;;;;;;;;5106305;27;20061;-80
2021/12/31 05:54:08;;;;;;;8.82;3.30;;;;;;;;;;5103717;27;20607;-81
2021/12/31 05:56:34;;;;;;;10.57;3.75;;;;;;;;;;5087568;27;20032;-81
2021/12/31 05:59:00;;;;;;;10.85;3.25;;;;;;;;;;5109403;27;20142;-81
2021/12/31 06:01:27;;;;;;;7.65;3.63;;;;;;;;;;5108674;27;20039;-80
2021/12/31 06:03:53;;;;;;;8.40;3.05;;;;;;;;;;5090243;27;20043;-80
2021/12/31 06:06:19;;;;;;;6.47;2.90;;;;;;;;;;5107465;27;20205;-80
2021/12/31 06:08:45;;;;;;;4.82;2.80;;;;;;;;;;5089205;27;20044;-80
2021/12/31 06:11:11;;;;;;;8.73;2.90;;;;;;;;;;5109826;27;20095;-80
2021/12/31 06:13:38;;;;;;;7.53;2.78;;;;;;;;;;5104167;27;20285;-81
2021/12/31 06:16:06;;;;;;;7.13;2.80;;;;;;;;;;5095085;27;20055;-80
2021/12/31 06:18:32;;;;;;;6.57;2.95;;;;;;;;;;5095348;27;20396;-80
2021/12/31 06:20:58;;;;;;;9.07;3.97;;;;;;;;;;5106591;27;20231;-80
2021/12/31 06:23:25;;;;;;;5.82;2.83;;;;;;;;;;5106024;27;20043;-80
2021/12/31 06:25:51;;;;;;;6.78;3.38;;;;;;;;;;5084462;27;20152;-81
2021/12/31 06:28:17;;;;;;;5.85;3.30;;;;;;;;;;5094044;27;20038;-81
2021/12/31 06:30:43;;;;;;;10.32;3.20;;;;;;;;;;5110099;27;20635;-81
2021/12/31 06:33:09;;;;;;;7.25;3.35;;;;;;;;;;5110713;27;20265;-81
2021/12/31 06:35:35;;;;;;;5.80;3.45;;;;;;;;;;5106323;27;20043;-81
2021/12/31 06:38:03;;;;;;;10.80;3.20;;;;;;;;;;5109445;27;20050;-81
2021/12/31 06:40:31;;;;;;;5.20;2.80;;;;;;;;;;5104946;27;20528;-80
2021/12/31 06:42:57;;;;;;;6.88;3.15;;;;;;;;;;5085105;27;20051;-81
2021/12/31 06:45:23;;;;;;;10.07;3.08;;;;;;;;;;5085878;27;20134;-81
2021/12/31 06:47:49;;;;;;;6.55;2.80;;;;;;;;;;5108200;27;20126;-81
2021/12/31 06:50:15;;;;;;;7.15;2.97;;;;;;;;;;5090285;27;20039;-81
2021/12/31 06:52:43;;;;;;;7.47;3.92;;;;;;;;;;5102394;27;20122;-73
2021/12/31 06:55:09;;;;;;;6.82;3.15;;;;;;;;;;5107660;27;20437;-73
2021/12/31 06:57:35;;;;;;;8.15;3.03;;;;;;;;;;5084046;28;20126;-73
2021/12/31 07:00:03;;;;;;;6.30;2.55;;;;;;;;;;5087574;28;20035;-73
2021/12/31 07:02:29;;;;;;;8.55;2.97;;;;;;;;;;5088672;27;20111;-74
2021/12/31 07:04:55;;;;;;;7.15;3.63;;;;;;;;;;5086815;27;20624;-74
2021/12/31 07:07:21;;;;;;;6.57;2.95;;;;;;;;;;5106461;27;20043;-74
2021/12/31 07:09:49;;;;;;;11.20;3.28;;;;;;;;;;5109226;27;20058;-74
2021/12/31 07:12:15;;;;;;;6.78;2.78;;;;;;;;;;5087773;27;20088;-74
2021/12/31 07:14:42;;;;;;;5.93;2.40;;;;;;;;;;5092185;27;20115;-81
2021/12/31 07:17:08;;;;;;;8.15;3.15;;;;;;;;;;5107691;27;20371;-81
2021/12/31 07:19:34;;;;;;;5.22;3.25;;;;;;;;;;5109481;27;20091;-81
2021/12/31 07:22:01;;;;;;;4.22;3.08;;;;;;;;;;5100455;27;20108;-81
2021/12/31 07:24:27;;;;;;;6.72;2.95;;;;;;;;;;5092238;27;20081;-81
2021/12/31 07:26:53;;;;;;;8.00;4.20;;;;;;;;;;5093545;27;20039;-81
2021/12/31 07:29:19;;;;;;;5.85;3.15;;;;;;;;;;5082972;28;20035;-73
2021/12/31 07:31:45;;;;;;;9.50;3.45;;;;;;;;;;5092541;27;20114;-74
2021/12/31 07:34:11;;;;;;;5.40;3.03;;;;;;;;;;5090019;27;20499;-74
2021/12/31 07:36:37;;;;;;;10.60;3.95;;;;;;;;;;5108016;27;20038;-74
2021/12/31 07:39:07;;;;;;;8.70;3.58;;;;;;;;;;5087878;27;20125;-74
2021/12/31 07:41:34;;;;;;;6.82;3.17;;;;;;;;;;5105033;27;20381;-74
2021/12/31 07:44:00;;;;;;;10.80;3.65;;;;;;;;;;5103524;27;20050;-75
2021/12/31 07:46:26;;;;;;;5.13;3.05;;;;;;;;;;5089779;28;20394;-75
2021/12/31 07:48:52;;;;;;;5.90;2.78;;;;;;;;;;5088971;27;20035;-75
2021/12/31 07:51:19;;;;;;;9.95;3.75;;;;;;;;;;5106562;27;20039;-75
2021/12/31 07:53:45;;;;;;;6.80;2.80;;;;;;;;;;5089076;28;20331;-75
2021/12/31 07:56:11;;;;;;;7.93;3.50;;;;;;;;;;5085044;28;20300;-75
2021/12/31 07:58:37;;;;;;;7.55;3.22;;;;;;;;;;5097312;28;20043;-80
2021/12/31 08:01:03;;;;;;;4.80;3.30;;;;;;;;;;5094295;27;20057;-80
2021/12/31 08:03:31;;;;;;;8.52;3.63;;;;;;;;;;5106300;28;20066;-80
2021/12/31 08:05:57;;;;;;;9.05;3.67;;;;;;;;;;5086889;28;20122;-79
2021/12/31 08:08:23;;;;;;;11.77;4.03;;;;;;;;;;5102170;27;20430;-80
2021/12/31 08:10:49;;;;;;;5.88;2.85;;;;;;;;;;5090430;28;20445;-79
2021/12/31 08:13:15;;;;;;;11.07;3.78;;;;;;;;;;5109811;28;20039;-79
2021/12/31 08:15:41;;;;;;;10.65;5.85;;;;;;;;;;5090648;27;20081;-80
2021/12/31 08:18:08;;;;;;;6.25;4.60;;;;;;;;;;5092846;28;20061;-80
2021/12/31 08:20:36;;;;;;;9.35;3.72;;;;;;;;;;5094789;28;20039;-83
2021/12/31 08:23:09;;;;;;;7.43;4.15;;;;;;;;;;5103727;28;20043;-80
2021/12/31 08:25:36;;;;;;;16.00;4.32;;;;;;;;;;5083150;28;20050;-80
2021/12/31 08:28:04;;;;;;;11.23;4.10;;;;;;;;;;5108587;27;20062;-80
2021/12/31 08:30:30;;;;;;;9.07;3.65;;;;;;;;;;5107790;28;20121;-80
2021/12/31 08:32:56;;;;;;;9.15;3.55;;;;;;;;;;5107558;28;20475;-81
2021/12/31 08:35:24;;;;;;;6.32;3.35;;;;;;;;;;5107505;28;20114;-80
2021/12/31 08:37:50;;;;;;;11.35;4.95;;;;;;;;;;5084363;28;20124;-81
2021/12/31 08:40:16;;;;;;;4.80;2.70;;;;;;;;;;5107376;28;20027;-82
2021/12/31 08:42:43;;;;;;;5.45;3.00;;;;;;;;;;5094214;27;20039;-81
2021/12/31 08:45:09;;;;;;;7.85;3.28;;;;;;;;;;5112503;27;20067;-81
2021/12/31 08:47:35;;;;;;;9.60;3.38;;;;;;;;;;5089075;27;20139;-81
2021/12/31 08:50:05;;;;;;;7.68;3.25;;;;;;;;;;5082988;27;20035;-82
2021/12/31 08:52:31;;;;;;;8.27;3.83;;;;;;;;;;5103528;27;20433;-80
2021/12/31 08:54:57;;;;;;;10.25;3.53;;;;;;;;;;5114721;27;20122;-80
2021/12/31 08:57:24;;;;;;;7.65;3.25;;;;;;;;;;5094714;28;20549;-81
2021/12/31 08:59:51;;;;;;;11.10;3.67;;;;;;;;;;5075429;27;20091;-74
2021/12/31 09:02:17;;;;;;;9.45;3.63;;;;;;;;;;5095642;27;20050;-74
2021/12/31 09:04:44;;;;;;;8.30;3.83;;;;;;;;;;5089578;27;20118;-74
2021/12/31 09:07:10;;;;;;;9.43;3.30;;;;;;;;;;5103748;27;20055;-75
2021/12/31 09:09:36;;;;;;;9.75;3.58;;;;;;;;;;5111181;27;20049;-74
2021/12/31 09:12:03;;;;;;;10.85;3.92;;;;;;;;;;5106813;27;20135;-75
2021/12/31 09:14:29;;;;;;;10.48;3.40;;;;;;;;;;5097697;27;20049;-75
2021/12/31 09:16:55;;;;;;;10.55;3.15;;;;;;;;;;5095037;27;20054;-75
2021/12/31 09:19:21;;;;;;;8.13;3.40;;;;;;;;;;5107840;27;20039;-75
2021/12/31 09:21:47;;;;;;;5.30;3.53;;;;;;;;;;5102081;27;20038;-75
2021/12/31 09:24:13;;;;;;;15.15;4.63;;;;;;;;;;5087053;28;20097;-75
2021/12/31 09:26:39;;;;;;;9.07;3.25;;;;;;;;;;5104385;27;20047;-73
2021/12/31 09:29:07;;;;;;;13.23;4.20;;;;;;;;;;5094591;27;20051;-74
2021/12/31 09:31:33;;;;;;;11.32;3.70;;;;;;;;;;5107296;27;20035;-74
2021/12/31 09:34:00;;;;;;;10.82;2.85;;;;;;;;;;5108978;27;20050;-74
2021/12/31 09:36:26;;;;;;;10.95;5.20;;;;;;;;;;5120205;27;20050;-75
2021/12/31 09:38:52;;;;;;;11.85;3.55;;;;;;;;;;5062808;27;20116;-74
2021/12/31 09:41:19;;;;;;;9.15;4.35;;;;;;;;;;5094009;27;20032;-75
2021/12/31 09:43:49;;;;;;;8.48;3.35;;;;;;;;;;5094170;27;20050;-75
2021/12/31 09:46:15;;;;;;;12.85;3.60;;;;;;;;;;5109472;27;20062;-74
2021/12/31 09:48:41;;;;;;;6.53;3.38;;;;;;;;;;5077048;27;20335;-75
2021/12/31 09:51:09;;;;;;;7.90;3.22;;;;;;;;;;5111112;27;20051;-75
2021/12/31 09:53:35;;;;;;;16.83;4.68;;;;;;;;;;5090522;27;20205;-74
2021/12/31 09:56:01;;;;;;;9.07;4.05;;;;;;;;;;5112227;27;20035;-75
2021/12/31 09:58:28;;;;;;;7.93;4.53;;;;;;;;;;5070946;28;20048;-74
2021/12/31 10:01:01;;;;;;;9.95;4.05;;;;;;;;;;5087187;27;20051;-75
2021/12/31 10:03:31;;;;;;;7.70;4.40;;;;;;;;;;5113459;27;20054;-75
2021/12/31 10:05:58;;;;;;;7.55;3.70;;;;;;;;;;5103150;27;20039;-75
2021/12/31 10:08:26;;;;;;;14.90;5.65;;;;;;;;;;5091156;27;20030;-75
2021/12/31 10:11:08;;;;;;;7.75;3.83;;;;;;;;;;5100800;27;20368;-75
2021/12/31 10:13:35;;;;;;;11.35;4.47;;;;;;;;;;5110358;27;20402;-75
2021/12/31 10:16:02;;;;;;;16.85;4.68;;;;;;;;;;5090026;27;20514;-75
2021/12/31 10:18:29;;;;;;;14.63;5.15;;;;;;;;;;5087164;27;20050;-75
2021/12/31 10:20:55;;;;;;;8.25;3.92;;;;;;;;;;5089510;27;20047;-75
2021/12/31 10:23:21;;;;;;;8.13;3.97;;;;;;;;;;5090352;27;20046;-75
2021/12/31 10:25:48;;;;;;;8.27;3.85;;;;;;;;;;5107809;27;20043;-81
2021/12/31 10:28:15;;;;;;;10.40;4.13;;;;;;;;;;5106540;28;20449;-81
2021/12/31 10:30:43;;;;;;;14.32;5.35;;;;;;;;;;5107005;27;20070;-80
2021/12/31 10:33:09;;;;;;;7.88;3.63;;;;;;;;;;5107861;27;20107;-80
2021/12/31 10:35:39;;;;;;;16.48;5.18;;;;;;;;;;5114262;27;20419;-81
2021/12/31 10:38:06;;;;;;;12.13;4.57;;;;;;;;;;5111543;27;20047;-81
2021/12/31 10:40:39;;;;;;;10.27;4.82;;;;;;;;;;5109479;27;20050;-81
2021/12/31 10:43:16;;;;;;;13.95;5.18;;;;;;;;;;5111123;27;20043;-80
2021/12/31 10:45:58;;;;;;;19.40;6.00;;;;;;;;;;5103983;27;20039;-80
2021/12/31 10:48:44;;;;;;;12.88;5.55;;;;;;;;;;5089775;27;20111;-81
2021/12/31 10:51:12;;;;;;;12.35;4.60;;;;;;;;;;5099969;27;20043;-81
2021/12/31 10:53:38;;;;;;;13.75;4.07;;;;;;;;;;5085985;27;20036;-81
2021/12/31 10:56:07;;;;;;;9.60;4.30;;;;;;;;;;5108087;27;20535;-80
2021/12/31 10:58:33;;;;;;;8.75;4.30;;;;;;;;;;5103419;27;20475;-80
2021/12/31 11:00:59;;;;;;;16.42;6.03;;;;;;;;;;5101112;27;20543;-80
2021/12/31 11:03:26;;;;;;;8.68;3.95;;;;;;;;;;5074013;27;20038;-81
2021/12/31 11:05:53;;;;;;;8.25;3.78;;;;;;;;;;5112587;27;20125;-81
2021/12/31 11:08:20;;;;;;;10.52;4.38;;;;;;;;;;5116691;27;20185;-79
2021/12/31 11:10:46;;;;;;;12.32;4.88;;;;;;;;;;5102679;27;20067;-81
2021/12/31 11:13:13;;;;;;;10.85;4.05;;;;;;;;;;5095025;27;20035;-81
2021/12/31 11:15:40;;;;;;;9.68;5.60;;;;;;;;;;5096512;27;20056;-81
2021/12/31 11:18:08;;;;;;;11.90;5.93;;;;;;;;;;5105640;28;20486;-81
2021/12/31 11:20:35;;;;;;;11.70;4.72;;;;;;;;;;5090767;28;20071;-82
2021/12/31 11:23:01;;;;;;;14.93;6.60;;;;;;;;;;5106337;27;20043;-82
2021/12/31 11:25:29;;;;;;;15.15;6.00;;;;;;;;;;5111300;27;20115;-82
2021/12/31 11:27:56;;;;;;;17.95;4.90;;;;;;;;;;5087866;27;20047;-81
2021/12/31 11:30:25;;;;;;;12.32;4.90;;;;;;;;;;5090181;28;20036;-82
2021/12/31 11:32:55;;;;;;;11.52;5.18;;;;;;;;;;5110143;28;20063;-81
2021/12/31 11:35:28;;;;;;;11.18;4.25;;;;;;;;;;5104641;27;20027;-82
2021/12/31 11:37:54;;;;;;;9.20;4.38;;;;;;;;;;5084154;28;20096;-81
2021/12/31 11:40:27;;;;;;;12.45;5.07;;;;;;;;;;5106722;28;20042;-80
2021/12/31 11:43:12;;;;;;;10.40;5.22;;;;;;;;;;5068832;28;20406;-80
2021/12/31 11:45:38;;;;;;;9.50;5.88;;;;;;;;;;5081272;28;20546;-80
2021/12/31 11:48:28;;;;;;;7.97;4.18;;;;;;;;;;5097430;28;20072;-79
2021/12/31 11:51:04;;;;;;;9.82;4.90;;;;;;;;;;5049376;28;20044;-83
2021/12/31 11:53:30;;;;;;;11.65;5.25;;;;;;;;;;5098965;28;20055;-79
2021/12/31 11:55:56;;;;;;;9.93;4.80;;;;;;;;;;5100310;28;20039;-78
2021/12/31 11:58:42;;;;;;;12.60;4.90;;;;;;;;;;5085808;28;20054;-80
2021/12/31 12:01:38;;;;;;;11.63;4.90;;;;;;;;;;5078304;28;20081;-80
2021/12/31 12:04:20;;;;;;;11.57;5.00;;;;;;;;;;5081507;28;20044;-80
2021/12/31 12:06:56;;;;;;;8.57;4.72;;;;;;;;;;5093751;28;20084;-80
2021/12/31 12:09:22;;;;;;;8.82;5.13;;;;;;;;;;5087701;28;20119;-79
2021/12/31 12:12:01;;;;;;;8.43;4.60;;;;;;;;;;5087864;28;20040;-79
2021/12/31 12:14:28;;;;;;;12.77;4.95;;;;;;;;;;5079047;28;20044;-79
2021/12/31 12:16:56;;;;;;;10.05;5.05;;;;;;;;;;5102285;28;20060;-74
2021/12/31 12:19:22;;;;;;;11.85;5.03;;;;;;;;;;5100909;28;20036;-79
2021/12/31 12:21:52;;;;;;;12.05;4.72;;;;;;;;;;5102737;28;20415;-80
2021/12/31 12:24:23;;;;;;;9.55;4.80;;;;;;;;;;5070434;27;20435;-74
2021/12/31 12:26:50;;;;;;;11.07;5.53;;;;;;;;;;5090193;27;20047;-74
2021/12/31 12:29:26;;;;;;;8.27;4.63;;;;;;;;;;5090643;28;20133;-74
2021/12/31 12:32:11;;;;;;;13.40;4.85;;;;;;;;;;5086232;27;20100;-74
2021/12/31 12:34:37;;;;;;;10.57;4.03;;;;;;;;;;5108709;27;20039;-74
2021/12/31 12:37:04;;;;;;;9.15;5.03;;;;;;;;;;5073611;28;20040;-74
2021/12/31 12:39:30;;;;;;;9.57;4.30;;;;;;;;;;5086142;27;20085;-74
2021/12/31 12:41:56;;;;;;;9.27;5.35;;;;;;;;;;5107826;27;20063;-74
2021/12/31 12:44:23;;;;;;;10.30;4.80;;;;;;;;;;5105872;27;20043;-74
2021/12/31 12:46:59;;;;;;;9.23;3.75;;;;;;;;;;5070364;28;20051;-74
2021/12/31 12:49:28;;;;;;;5.85;3.90;;;;;;;;;;5107195;27;20636;-74
2021/12/31 12:51:56;;;;;;;14.70;4.80;;;;;;;;;;5088580;28;20039;-74
2021/12/31 12:54:25;;;;;;;9.57;4.78;;;;;;;;;;5087556;28;20143;-74
2021/12/31 12:56:51;;;;;;;12.80;4.70;;;;;;;;;;5085106;27;20616;-74
2021/12/31 12:59:22;;;;;;;12.30;5.00;;;;;;;;;;5108235;27;20101;-74
2021/12/31 13:01:49;;;;;;;10.93;4.53;;;;;;;;;;5084575;28;20504;-74
2021/12/31 13:04:17;;;;;;;9.43;4.68;;;;;;;;;;5091458;27;20566;-74
2021/12/31 13:06:44;;;;;;;8.55;3.92;;;;;;;;;;5086008;28;20043;-74
2021/12/31 13:09:13;;;;;;;10.40;4.47;;;;;;;;;;5079765;28;20416;-74
2021/12/31 13:11:40;;;;;;;8.85;4.18;;;;;;;;;;5101960;27;20063;-73
2021/12/31 13:14:13;;;;;;;9.90;4.97;;;;;;;;;;5102089;28;20050;-74
2021/12/31 13:16:40;;;;;;;10.90;5.05;;;;;;;;;;5098906;27;20044;-74
2021/12/31 13:19:09;;;;;;;11.68;4.85;;;;;;;;;;5090325;27;20040;-74
2021/12/31 13:21:35;;;;;;;10.50;4.65;;;;;;;;;;5105218;27;20039;-74
2021/12/31 13:24:03;;;;;;;15.52;5.82;;;;;;;;;;5106459;27;20490;-74
2021/12/31 13:26:30;;;;;;;15.43;6.30;;;;;;;;;;5111031;27;20206;-74
2021/12/31 13:28:57;;;;;;;12.50;5.30;;;;;;;;;;5068642;28;20040;-79
2021/12/31 13:31:40;;;;;;;16.63;6.05;;;;;;;;;;5083186;28;20075;-79
2021/12/31 13:34:13;;;;;;;15.60;7.13;;;;;;;;;;5084091;28;20048;-79
2021/12/31 13:36:53;;;;;;;13.23;6.57;;;;;;;;;;5101077;28;20058;-78
2021/12/31 13:39:20;;;;;;;21.10;7.45;;;;;;;;;;5086510;28;20044;-78
2021/12/31 13:41:51;;;;;;;19.67;6.47;;;;;;;;;;5103554;27;20122;-79
2021/12/31 13:44:19;;;;;;;16.58;6.13;;;;;;;;;;5085738;28;20536;-79
2021/12/31 13:46:47;;;;;;;17.13;5.97;;;;;;;;;;5102604;27;20360;-79
2021/12/31 13:49:17;;;;;;;15.20;7.40;;;;;;;;;;5101565;28;20035;-79
2021/12/31 13:51:43;;;;;;;20.52;6.97;;;;;;;;;;5101593;27;20063;-79
2021/12/31 13:54:10;;;;;;;24.08;6.63;;;;;;;;;;5065074;28;20043;-74
2021/12/31 13:56:38;;;;;;;52.78;27.23;;;;;;;;;;5085639;27;20259;-74
2021/12/31 13:59:40;;;;;;;24.92;7.78;;;;;;;;;;5098865;27;20040;-74
2021/12/31 14:02:09;;;;;;;18.65;6.38;;;;;;;;;;5010376;28;20628;-75
2021/12/31 14:04:58;;;;;;;23.40;7.75;;;;;;;;;;5084445;27;20111;-75
2021/12/31 14:07:30;;;;;;;14.68;5.78;;;;;;;;;;5089658;28;20067;-75
2021/12/31 14:10:01;;;;;;;19.08;7.00;;;;;;;;;;5098354;27;20040;-74
2021/12/31 14:12:28;;;;;;;23.38;9.80;;;;;;;;;;5096017;28;20031;-75
2021/12/31 14:14:54;;;;;;;15.88;7.00;;;;;;;;;;5092815;28;20085;-75
2021/12/31 14:17:20;;;;;;;16.00;7.22;;;;;;;;;;5106859;27;20035;-75
2021/12/31 14:19:47;;;;;;;18.67;8.75;;;;;;;;;;5111629;27;20039;-75
2021/12/31 14:22:13;;;;;;;16.95;6.95;;;;;;;;;;5109578;27;20091;-75
2021/12/31 14:24:39;;;;;;;17.55;8.15;;;;;;;;;;5104700;27;20031;-75
2021/12/31 14:27:06;;;;;;;17.42;6.90;;;;;;;;;;5090484;27;20490;-74
2021/12/31 14:29:33;;;;;;;22.48;7.90;;;;;;;;;;5068733;27;20513;-80
2021/12/31 14:32:01;;;;;;;23.20;8.38;;;;;;;;;;5093244;27;20077;-81
2021/12/31 14:34:29;;;;;;;15.73;6.97;;;;;;;;;;5076161;27;20039;-79
2021/12/31 14:36:57;;;;;;;21.10;7.53;;;;;;;;;;5083362;27;20126;-83
2021/12/31 14:39:23;;;;;;;22.80;8.20;;;;;;;;;;5077839;27;20038;-82
2021/12/31 14:41:49;;;;;;;16.15;6.78;;;;;;;;;;5083347;27;20043;-80
2021/12/31 14:44:15;;;;;;;18.70;7.82;;;;;;;;;;5108074;27;20343;-80